createdAt,value
2018-04-08T00:01:04.450Z,30.77
2018-04-08T00:03:41.211Z,20.12
2018-04-08T00:06:18.768Z,22.48
2018-04-08T00:08:55.529Z,21.55
2018-04-08T00:11:30.686Z,21.10
2018-04-08T00:14:06.675Z,21.23
2018-04-08T00:16:44.133Z,23.55
2018-04-08T00:19:25.418Z,23.87
2018-04-08T00:22:02.732Z,37.90
2018-04-08T00:24:40.277Z,29.02
2018-04-08T00:27:16.252Z,29.52
2018-04-08T00:29:52.970Z,23.80
2018-04-08T00:32:34.600Z,21.02
2018-04-08T00:35:10.099Z,19.33
2018-04-08T00:37:47.908Z,23.70
2018-04-08T00:40:24.959Z,23.30
2018-04-08T00:43:00.146Z,25.55
2018-04-08T00:45:38.147Z,22.70
2018-04-08T00:48:14.445Z,24.30
2018-04-08T00:50:50.054Z,24.20
2018-04-08T00:53:26.505Z,22.77
2018-04-08T00:56:02.462Z,27.00
2018-04-08T00:58:39.914Z,29.77
2018-04-08T01:01:19.532Z,20.90
2018-04-08T01:03:55.904Z,26.17
2018-04-08T01:06:31.909Z,24.12
2018-04-08T01:09:08.822Z,24.87
2018-04-08T01:11:48.067Z,25.55
2018-04-08T01:14:26.467Z,26.85
2018-04-08T01:17:02.427Z,28.45
2018-04-08T01:19:40.263Z,22.65
2018-04-08T01:22:18.343Z,25.85
2018-04-08T01:24:56.131Z,37.75
2018-04-08T01:27:37.742Z,24.95
2018-04-08T01:30:14.225Z,24.63
2018-04-08T01:32:51.286Z,33.53
2018-04-08T01:35:26.907Z,33.95
2018-04-08T01:38:02.311Z,31.85
2018-04-08T01:40:38.524Z,30.30
2018-04-08T01:43:18.383Z,27.50
2018-04-08T01:45:55.795Z,27.92
2018-04-08T01:48:32.051Z,28.85
2018-04-08T01:51:07.680Z,31.37
2018-04-08T01:53:44.478Z,22.95
2018-04-08T01:56:20.476Z,30.23
2018-04-08T01:58:57.233Z,35.70
2018-04-08T02:01:35.306Z,23.10
2018-04-08T02:04:11.117Z,25.23
2018-04-08T02:06:48.649Z,27.25
2018-04-08T02:09:25.757Z,29.25
2018-04-08T02:12:01.695Z,32.45
2018-04-08T02:14:38.298Z,32.13
2018-04-08T02:17:13.860Z,28.17
2018-04-08T02:19:49.332Z,29.05
2018-04-08T02:22:27.157Z,25.02
2018-04-08T02:25:05.065Z,35.05
2018-04-08T02:27:40.567Z,23.90
2018-04-08T02:30:16.388Z,28.25
2018-04-08T02:32:52.502Z,28.02
2018-04-08T02:35:30.304Z,31.27
2018-04-08T02:38:06.850Z,26.95
2018-04-08T02:40:41.994Z,28.17
2018-04-08T02:43:17.232Z,23.77
2018-04-08T02:45:54.834Z,25.85
2018-04-08T02:48:30.026Z,26.77
2018-04-08T02:51:06.366Z,34.58
2018-04-08T02:53:42.871Z,26.17
2018-04-08T02:56:19.607Z,25.85
2018-04-08T02:58:56.554Z,24.23
2018-04-08T03:01:31.470Z,29.55
2018-04-08T03:04:08.099Z,25.77
2018-04-08T03:06:43.631Z,24.67
2018-04-08T03:09:20.091Z,25.20
2018-04-08T03:11:56.515Z,27.92
2018-04-08T03:14:31.679Z,23.48
2018-04-08T03:17:08.248Z,25.35
2018-04-08T03:19:46.586Z,29.60
2018-04-08T03:22:21.525Z,26.33
2018-04-08T03:24:59.217Z,41.40
2018-04-08T03:27:35.998Z,26.05
2018-04-08T03:30:15.232Z,27.50
2018-04-08T03:32:54.673Z,26.08
2018-04-08T03:35:33.071Z,33.95
2018-04-08T03:38:11.861Z,32.55
2018-04-08T03:40:50.933Z,34.85
2018-04-08T03:43:25.829Z,24.42
2018-04-08T03:46:02.234Z,31.87
2018-04-08T03:48:43.209Z,24.58
2018-04-08T03:51:19.355Z,25.58
2018-04-08T03:53:54.656Z,24.75
2018-04-08T03:56:31.168Z,28.67
2018-04-08T03:59:08.169Z,29.52
2018-04-08T04:01:44.653Z,31.23
2018-04-08T04:04:23.608Z,26.58
2018-04-08T04:07:01.360Z,28.70
2018-04-08T04:09:41.095Z,26.27
2018-04-08T04:12:17.524Z,19.02
2018-04-08T04:14:55.547Z,22.13
2018-04-08T04:17:30.868Z,31.15
2018-04-08T04:20:19.078Z,29.40
2018-04-08T04:23:06.061Z,22.23
2018-04-08T04:25:48.857Z,24.95
2018-04-08T04:28:27.246Z,24.70
2018-04-08T04:31:03.702Z,29.58
2018-04-08T04:33:42.182Z,33.42
2018-04-08T04:36:15.477Z,28.95
2018-04-08T04:38:52.658Z,25.90
2018-04-08T04:41:27.992Z,30.33
2018-04-08T04:44:08.312Z,24.73
2018-04-08T04:46:46.065Z,35.05
2018-04-08T04:49:23.345Z,27.10
2018-04-08T04:51:58.616Z,31.30
2018-04-08T04:54:35.566Z,21.35
2018-04-08T04:57:11.949Z,24.20
2018-04-08T04:59:50.149Z,27.90
2018-04-08T05:02:29.833Z,21.45
2018-04-08T05:05:06.596Z,21.37
2018-04-08T05:07:42.678Z,26.50
2018-04-08T05:10:21.270Z,24.67
2018-04-08T05:12:59.725Z,25.35
2018-04-08T05:15:35.013Z,24.33
2018-04-08T05:18:11.799Z,22.95
2018-04-08T05:20:48.150Z,21.85
2018-04-08T05:23:25.946Z,23.58
2018-04-08T05:26:05.789Z,27.92
2018-04-08T05:28:42.182Z,32.33
2018-04-08T05:31:21.939Z,25.35
2018-04-08T05:33:58.638Z,22.05
2018-04-08T05:36:36.195Z,28.12
2018-04-08T05:39:13.334Z,28.02
2018-04-08T05:41:51.814Z,24.83
2018-04-08T05:44:28.813Z,36.72
2018-04-08T05:47:05.104Z,30.62
2018-04-08T05:49:40.906Z,21.67
2018-04-08T05:52:18.055Z,27.87
2018-04-08T05:54:54.055Z,25.65
2018-04-08T05:57:30.920Z,23.30
2018-04-08T06:00:07.760Z,26.83
2018-04-08T06:02:43.907Z,31.65
2018-04-08T06:05:20.279Z,31.45
2018-04-08T06:07:57.529Z,22.02
2018-04-08T06:10:34.210Z,21.60
2018-04-08T06:13:12.403Z,26.77
2018-04-08T06:15:50.568Z,21.60
2018-04-08T06:18:26.669Z,23.58
2018-04-08T06:21:01.974Z,23.35
2018-04-08T06:23:39.295Z,24.23
2018-04-08T06:26:16.013Z,28.15
2018-04-08T06:28:52.960Z,26.17
2018-04-08T06:31:31.307Z,23.48
2018-04-08T06:34:08.094Z,27.67
2018-04-08T06:36:46.467Z,33.40
2018-04-08T06:39:23.329Z,32.60
2018-04-08T06:41:58.443Z,30.00
2018-04-08T06:44:34.770Z,22.77
2018-04-08T06:47:10.869Z,25.48
2018-04-08T06:49:47.374Z,21.83
2018-04-08T06:52:24.330Z,23.83
2018-04-08T06:55:01.728Z,23.40
2018-04-08T06:57:40.094Z,20.95
2018-04-08T07:00:16.392Z,22.52
2018-04-08T16:13:21.436Z,19.70
2018-04-08T16:15:51.720Z,16.70
2018-04-08T16:18:22.856Z,14.93
2018-04-08T16:20:54.792Z,14.10
2018-04-08T16:23:25.009Z,13.47
2018-04-08T16:25:55.212Z,17.20
2018-04-08T16:28:25.037Z,13.67
2018-04-08T16:30:54.693Z,20.00
2018-04-08T16:33:25.013Z,19.23
2018-04-08T16:35:55.282Z,23.00
2018-04-08T16:38:26.335Z,13.27
2018-04-08T16:40:58.284Z,19.37
2018-04-08T16:43:28.426Z,13.70
2018-04-08T16:45:58.485Z,11.30
2018-04-08T16:48:29.964Z,11.87
2018-04-08T16:50:59.810Z,20.80
2018-04-08T16:53:29.604Z,13.40
2018-04-08T16:55:59.783Z,15.90
2018-04-08T16:58:30.638Z,16.00
2018-04-08T17:01:00.700Z,24.23
2018-04-08T17:03:31.069Z,22.43
2018-04-08T17:06:01.833Z,13.97
2018-04-08T17:08:31.866Z,17.20
2018-04-08T17:11:02.015Z,21.07
2018-04-08T17:13:32.488Z,19.20
2018-04-08T17:16:02.843Z,17.60
2018-04-08T17:18:33.222Z,18.30
2018-04-08T17:21:03.747Z,16.27
2018-04-08T17:23:35.141Z,13.97
2018-04-08T17:26:05.434Z,16.30
2018-04-08T17:28:35.713Z,11.60
2018-04-08T17:31:06.383Z,9.63
2018-04-08T17:33:36.610Z,15.07
2018-04-08T17:36:06.377Z,10.63
2018-04-08T17:38:36.147Z,12.40
2018-04-08T17:41:06.338Z,8.47
2018-04-08T17:43:37.548Z,16.63
2018-04-08T17:46:07.786Z,11.23
2018-04-08T17:48:38.044Z,11.70
2018-04-08T17:51:08.238Z,12.53
2018-04-08T17:53:38.334Z,10.10
2018-04-08T17:56:08.124Z,10.07
2018-04-08T17:58:37.914Z,13.67
2018-04-08T18:01:14.859Z,16.90
2018-04-08T18:03:46.518Z,13.80
2018-04-08T18:06:16.821Z,14.80
2018-04-08T18:08:46.388Z,15.27
2018-04-08T18:11:16.645Z,15.43
2018-04-08T18:13:46.359Z,9.20
2018-04-08T18:16:16.422Z,17.27
2018-04-08T18:18:46.667Z,12.70
2018-04-08T18:21:16.515Z,9.20
2018-04-08T18:23:46.368Z,15.07
2018-04-08T18:26:16.283Z,7.37
2018-04-08T18:28:47.244Z,17.90
2018-04-08T18:31:17.342Z,14.40
2018-04-08T18:33:47.612Z,15.97
2018-04-08T18:36:17.870Z,17.27
2018-04-08T18:38:48.887Z,17.23
2018-04-08T18:41:19.116Z,19.90
2018-04-08T18:43:49.231Z,17.70
2018-04-08T18:46:19.362Z,19.53
2018-04-08T18:48:50.220Z,18.50
2018-04-08T18:51:22.128Z,7.97
2018-04-08T18:53:52.400Z,7.63
2018-04-08T18:56:22.130Z,9.20
2018-04-08T18:58:52.144Z,24.03
2018-04-08T19:01:21.796Z,7.70
2018-04-08T19:03:51.670Z,9.83
2018-04-08T19:06:21.883Z,14.87
2018-04-08T19:08:52.121Z,21.47
2018-04-08T19:11:22.414Z,8.57
2018-04-08T19:13:52.423Z,11.30
2018-04-08T19:16:23.122Z,17.20
2018-04-08T19:18:53.628Z,20.63
2018-04-08T19:21:23.481Z,17.43
2018-04-08T19:23:53.240Z,18.33
2018-04-08T19:26:23.532Z,19.40
2018-04-08T19:28:56.508Z,12.23
2018-04-08T19:31:27.210Z,10.03
2018-04-08T19:33:58.657Z,12.77
2018-04-08T19:36:28.381Z,11.20
2018-04-08T19:39:00.111Z,15.20
2018-04-08T19:41:30.937Z,10.70
2018-04-08T19:44:01.082Z,9.57
2018-04-08T19:46:31.417Z,12.60
2018-04-08T19:49:01.998Z,8.20
2018-04-08T19:51:32.307Z,12.77
2018-04-08T19:54:02.979Z,14.33
2018-04-08T19:56:33.173Z,13.23
2018-04-08T19:59:02.962Z,17.37
2018-04-08T20:01:33.735Z,12.50
2018-04-08T20:04:03.409Z,14.83
2018-04-08T20:06:33.752Z,15.40
2018-04-08T20:09:05.496Z,19.90
2018-04-08T20:11:36.459Z,8.30
2018-04-08T20:14:08.078Z,14.57
2018-04-08T20:16:38.780Z,12.53
2018-04-08T20:19:08.933Z,15.93
2018-04-08T20:21:40.014Z,9.37
2018-04-08T20:24:09.806Z,7.57
2018-04-08T20:26:39.951Z,16.13
2018-04-08T20:29:09.607Z,9.17
2018-04-08T20:31:40.174Z,8.17
2018-04-08T20:34:10.426Z,10.80
2018-04-08T20:36:40.329Z,13.70
2018-04-08T20:39:12.270Z,21.27
2018-04-08T20:41:42.653Z,13.90
2018-04-08T20:44:14.743Z,12.77
2018-04-08T20:46:44.360Z,9.50
2018-04-08T20:49:14.049Z,12.40
2018-04-08T20:51:43.865Z,13.17
2018-04-08T20:54:15.014Z,11.70
2018-04-08T20:56:46.033Z,10.50
2018-04-08T20:59:17.843Z,9.00
2018-04-08T21:01:47.632Z,10.70
2018-04-08T21:04:17.730Z,10.20
2018-04-08T21:06:50.536Z,12.27
2018-04-08T21:09:22.596Z,9.33
2018-04-08T21:11:52.628Z,12.67
2018-04-08T21:14:22.724Z,10.00
2018-04-08T21:16:55.086Z,10.60
2018-04-08T21:19:27.772Z,13.00
2018-04-08T21:22:02.422Z,13.20
2018-04-08T21:24:34.317Z,11.97
2018-04-08T21:27:03.988Z,10.77
2018-04-08T21:29:34.307Z,17.43
2018-04-08T21:32:04.502Z,15.43
2018-04-08T21:34:34.637Z,9.27
2018-04-08T21:37:06.260Z,12.97
2018-04-08T21:39:35.952Z,21.90
2018-04-08T21:42:06.202Z,17.67
2018-04-08T21:44:36.156Z,12.60
2018-04-08T21:47:07.223Z,19.63
2018-04-08T21:49:37.412Z,16.07
2018-04-08T21:52:07.114Z,17.03
2018-04-08T21:54:39.976Z,14.60
2018-04-08T21:57:09.695Z,9.47
2018-04-08T21:59:40.215Z,18.17
2018-04-08T22:02:10.476Z,15.60
2018-04-08T22:04:40.545Z,11.93
2018-04-08T22:07:10.145Z,20.40
2018-04-08T22:09:39.783Z,11.70
2018-04-08T22:12:10.189Z,17.40
2018-04-08T22:14:40.429Z,12.63
2018-04-08T22:17:11.144Z,12.40
2018-04-08T22:19:41.188Z,15.00
2018-04-08T22:22:12.090Z,16.40
2018-04-08T22:24:41.703Z,18.57
2018-04-08T22:27:11.669Z,13.13
2018-04-08T22:29:42.790Z,12.80
2018-04-08T22:32:13.201Z,13.13
2018-04-08T22:34:42.712Z,14.10
2018-04-08T22:37:13.072Z,11.60
2018-04-08T22:39:42.653Z,13.97
2018-04-08T22:42:13.407Z,15.23
2018-04-08T22:44:45.191Z,10.53
2018-04-08T22:47:18.008Z,16.40
2018-04-08T22:49:49.822Z,17.30
2018-04-08T22:52:19.832Z,10.87
2018-04-08T22:54:49.429Z,16.50
2018-04-08T22:57:21.297Z,10.73
2018-04-08T22:59:52.802Z,22.57
2018-04-08T23:02:23.709Z,10.40
2018-04-08T23:04:53.967Z,10.40
2018-04-08T23:07:24.273Z,16.23
2018-04-08T23:09:56.105Z,14.63
2018-04-08T23:12:26.827Z,14.73
2018-04-08T23:14:56.720Z,14.07
2018-04-08T23:17:26.339Z,10.47
2018-04-08T23:19:58.123Z,17.63
2018-04-08T23:22:28.978Z,17.93
2018-04-08T23:24:58.818Z,12.60
2018-04-08T23:27:29.128Z,12.33
2018-04-08T23:29:58.707Z,15.87
2018-04-08T23:32:28.253Z,20.73
2018-04-08T23:34:59.869Z,25.73
2018-04-08T23:37:29.837Z,17.83
2018-04-08T23:40:00.262Z,18.67
2018-04-08T23:42:31.839Z,21.83
2018-04-08T23:45:01.640Z,19.33
2018-04-08T23:47:31.328Z,9.17
2018-04-08T23:50:01.691Z,16.20
2018-04-08T23:52:31.565Z,14.83
2018-04-08T23:55:03.023Z,14.87
2018-04-08T23:57:32.736Z,17.20
